Chester, ID (83421)

8:37 PM MDT on September 01, 2015 (GMT -0600)
Parkinson Seed Farm, Saint Anthony | | Change Station
CLOSE
Current Station
Personal Weather Station
Location: Ashton, ID
Elevation: 5358 ft
Nearby Weather Stations
Active Advisory: Fire Weather Warning

Elev 5358 ft 43.94 °N, 111.48 °W | Updated 30 seconds ago

Clear
Clear
70.7 °F
Feels Like 75 °F
N
4.9
Wind Variable Wind from East
Gusts 7.0 mph

Today
High -- | Low -- °F
--% Chance of Precip.
Yesterday
High -- | Low -- °F
Precip. -- in
6:49 AM 8:02 PM
Waning Gibbous, 84% visible
Pressure 29.81 in
Visibility 10.0 miles
Clouds Clear
Heat Index 75 °F
Dew Point 32 °F
Humidity 24%
Rainfall 0.00 in
Snow Depth Not available.
UV 0 out of 12
Pollen 8.90 out of 12
Air Quality Not available.
Flu Activity Not available.
METAR KRXE 020153Z AUTO 18006KT 10SM CLR 24/01 A2991 RMK AO2 SLP095 T02440006
Pressure 29.81 in
Visibility 10.0 miles
Clouds Clear
Heat Index 75 °F
Dew Point 32 °F
Humidity 24%
Rainfall 0.00 in
Snow Depth Not available.
UV 0 out of 12
Pollen 8.90 out of 12
Air Quality Not available.
Flu Activity Not available.
METAR KRXE 020153Z AUTO 18006KT 10SM CLR 24/01 A2991 RMK AO2 SLP095 T02440006

10-Day Weather Forecast

×

Almanac

Astronomy

Sep. 01, 2015 Rise Set
Actual Time
Civil Twilight
Nautical Twilight
Astronomical Twilight
Moon
Length of Visible Light
Length of Day
Tomorrow will be .
, % of the Moon is Illuminated

Today's Extremes

State Highs State Lows

Community

WunderPhotos

Upload Photos

1,851,681 photos uploaded!

WunderBlogs® & News

Nearby

Air Quality

  Air Quality AQ Index Pollutant
Not available.

Snow Depth

Station Depth Elevation

Earthquake Activity

City Distance Mag. Time & Date
Minimum magnitude displayed is 2.5.

Coastal Water Temperatures

Place Temperature

Stations

Nearby Weather Stations

Station Location Temp. Windchill Dew Point Humidity Wind Precip. Elev Updated Type
                   
Fire Weather Warning
Statement as of 2:14 PM MDT on September 01, 2015

... Red flag warning in effect from noon to 9 PM MDT Wednesday for
gusty winds and low humidity for fire weather zone 410...

The National Weather Service in Pocatello has issued a red flag
warning... which is in effect from noon to 9 PM MDT Wednesday.

* Affected area... fire weather zone 410.

* Wind... southwest winds 20 to 25 mph gusting to 30 mph.

* Humidity... 10 to 15 percent.

* Thunderstorms... none

* impacts... any fires that develop will likely spread rapidly.
Outdoor burning is not recommended.

Precautionary/preparedness actions...

A red flag warning means that critical fire weather conditions
are either occurring now... or will shortly. Fires may experience
rapid rates of growth. Please advise the appropriate officials or
fire crews in the field of the red flag warning for portions of
southeast Idaho.